createdAt,value
2022-12-09T00:00:43.982Z,3.08
2022-12-09T00:03:10.639Z,3.38
2022-12-09T00:05:40.249Z,3.42
2022-12-09T00:08:06.912Z,3.75
2022-12-09T00:10:33.419Z,3.20
2022-12-09T00:12:59.974Z,3.03
2022-12-09T00:15:26.435Z,2.53
2022-12-09T00:17:53.108Z,3.42
2022-12-09T00:20:19.563Z,3.10
2022-12-09T00:22:46.012Z,3.40
2022-12-09T00:25:12.466Z,2.90
2022-12-09T00:27:39.077Z,3.15
2022-12-09T00:30:06.600Z,3.28
2022-12-09T00:32:33.449Z,3.15
2022-12-09T00:34:59.982Z,3.08
2022-12-09T00:37:26.398Z,3.50
2022-12-09T00:39:52.845Z,3.10
2022-12-09T00:42:19.293Z,2.90
2022-12-09T00:44:45.780Z,2.90
2022-12-09T00:47:12.594Z,2.85
2022-12-09T00:49:39.342Z,2.55
2022-12-09T00:52:06.015Z,2.70
2022-12-09T00:54:32.577Z,2.72
2022-12-09T00:56:59.190Z,2.53
2022-12-09T00:59:26.029Z,3.10
2022-12-09T01:01:52.596Z,2.50
2022-12-09T01:04:19.280Z,2.88
2022-12-09T01:06:46.103Z,2.95
2022-12-09T01:09:14.043Z,3.03
2022-12-09T01:11:40.563Z,2.55
2022-12-09T01:14:07.213Z,2.50
2022-12-09T01:16:35.229Z,2.97
2022-12-09T01:19:05.433Z,2.80
2022-12-09T01:21:33.293Z,3.30
2022-12-09T01:24:00.240Z,2.88
2022-12-09T01:26:27.208Z,2.90
2022-12-09T01:28:55.360Z,2.95
2022-12-09T01:31:24.089Z,2.53
2022-12-09T01:33:51.084Z,2.80
2022-12-09T01:36:26.199Z,2.88
2022-12-09T01:38:53.179Z,2.40
2022-12-09T01:41:21.954Z,2.50
2022-12-09T01:44:20.205Z,2.60
2022-12-09T01:46:47.573Z,2.53
2022-12-09T01:49:22.859Z,2.20
2022-12-09T01:52:00.341Z,2.47
2022-12-09T01:54:27.318Z,2.30
2022-12-09T01:56:54.110Z,2.60
2022-12-09T01:59:21.823Z,2.33
2022-12-09T02:01:51.859Z,2.42
2022-12-09T02:04:18.854Z,2.30
2022-12-09T02:06:45.927Z,2.50
2022-12-09T02:09:12.748Z,2.35
2022-12-09T02:12:03.509Z,2.17
2022-12-09T02:14:41.492Z,2.13
2022-12-09T02:17:25.939Z,2.40
2022-12-09T02:20:35.049Z,2.15
2022-12-09T02:23:15.708Z,2.55
2022-12-09T02:25:45.258Z,3.05
2022-12-09T02:28:57.005Z,2.20
2022-12-09T02:31:40.806Z,2.42
2022-12-09T02:34:18.122Z,2.30
2022-12-09T02:37:04.928Z,2.33
2022-12-09T02:39:43.815Z,2.47
2022-12-09T02:42:16.467Z,2.50
2022-12-09T02:44:45.720Z,2.80
2022-12-09T02:47:16.741Z,2.30
2022-12-09T02:49:46.781Z,2.42
2022-12-09T02:52:13.833Z,2.53
2022-12-09T02:54:41.325Z,3.45
2022-12-09T02:57:14.611Z,2.20
2022-12-09T02:59:41.470Z,2.25
2022-12-09T03:02:16.005Z,2.33
2022-12-09T03:04:48.033Z,2.25
2022-12-09T03:07:44.085Z,2.35
2022-12-09T03:10:17.836Z,2.30
2022-12-09T03:12:52.780Z,2.35
2022-12-09T03:15:25.099Z,2.15
2022-12-09T03:17:53.378Z,2.20
2022-12-09T03:20:26.483Z,2.40
2022-12-09T03:25:28.037Z,2.63
2022-12-09T03:28:01.993Z,2.65
2022-12-09T03:30:31.538Z,2.42
2022-12-09T03:32:58.698Z,2.33
2022-12-09T03:35:32.387Z,2.58
2022-12-09T03:38:00.745Z,2.20
2022-12-09T03:40:30.641Z,2.60
2022-12-09T03:43:11.105Z,2.40
2022-12-09T03:45:37.982Z,2.65
2022-12-09T03:48:04.816Z,2.55
2022-12-09T03:50:36.368Z,2.50
2022-12-09T03:53:14.316Z,2.40
2022-12-09T03:56:06.741Z,2.45
2022-12-09T03:58:35.233Z,2.67
2022-12-09T04:01:02.973Z,2.35
2022-12-09T04:03:30.071Z,2.50
2022-12-09T04:05:56.699Z,2.85
2022-12-09T04:08:23.386Z,2.70
2022-12-09T04:10:49.903Z,3.13
2022-12-09T04:13:16.739Z,2.33
2022-12-09T04:15:43.190Z,2.90
2022-12-09T04:18:09.842Z,3.08
2022-12-09T04:20:36.917Z,3.53
2022-12-09T04:23:03.595Z,2.63
2022-12-09T04:25:30.397Z,2.65
2022-12-09T04:27:57.287Z,3.30
2022-12-09T04:30:23.729Z,3.42
2022-12-09T04:32:50.328Z,2.88
2022-12-09T04:35:17.044Z,2.47
2022-12-09T04:37:43.875Z,2.58
2022-12-09T04:40:11.421Z,2.60
2022-12-09T04:42:38.565Z,2.70
2022-12-09T04:45:05.616Z,3.00
2022-12-09T04:47:33.779Z,2.67
2022-12-09T04:50:00.605Z,2.97
2022-12-09T04:52:27.595Z,2.83
2022-12-09T04:54:54.195Z,3.33
2022-12-09T04:57:20.852Z,2.90
2022-12-09T04:59:47.742Z,3.08
2022-12-09T05:02:14.296Z,2.85
2022-12-09T05:04:43.024Z,3.25
2022-12-09T05:07:11.193Z,3.55
2022-12-09T05:09:38.341Z,3.20
2022-12-09T05:12:05.304Z,2.78
2022-12-09T05:14:31.917Z,2.80
2022-12-09T05:16:58.769Z,2.88
2022-12-09T05:19:25.715Z,3.42
2022-12-09T05:21:52.433Z,3.03
2022-12-09T05:24:19.046Z,3.00
2022-12-09T05:26:45.733Z,3.67
2022-12-09T05:29:15.204Z,3.10
2022-12-09T05:31:44.772Z,3.30
2022-12-09T05:34:11.589Z,3.22
2022-12-09T05:36:38.252Z,3.70
2022-12-09T05:39:04.960Z,3.20
2022-12-09T05:41:31.484Z,3.42
2022-12-09T05:43:58.360Z,3.30
2022-12-09T05:46:25.070Z,3.10
2022-12-09T05:48:51.784Z,3.42
2022-12-09T05:51:28.089Z,4.43
2022-12-09T05:53:56.690Z,3.42
2022-12-09T05:56:24.555Z,2.90
2022-12-09T05:58:55.701Z,3.30
2022-12-09T06:01:23.765Z,3.30
2022-12-09T06:03:52.966Z,2.53
2022-12-09T06:06:22.252Z,2.78
2022-12-09T06:08:49.621Z,2.80
2022-12-09T06:11:19.713Z,3.03
2022-12-09T06:13:47.326Z,2.25
2022-12-09T06:16:15.443Z,3.03
2022-12-09T06:18:42.667Z,3.42
2022-12-09T06:21:11.506Z,2.90
2022-12-09T06:23:41.429Z,7.30
2022-12-09T06:26:17.190Z,3.22
2022-12-09T06:28:44.037Z,3.10
2022-12-09T06:31:10.984Z,4.97
2022-12-09T06:33:54.123Z,4.70
2022-12-09T06:36:22.636Z,4.30
2022-12-09T06:38:49.557Z,9.27
2022-12-09T06:41:16.444Z,4.25
2022-12-09T06:43:43.969Z,4.45
2022-12-09T06:46:15.493Z,6.53
2022-12-09T06:48:42.772Z,4.07
2022-12-09T06:51:09.824Z,2.85
2022-12-09T06:53:37.323Z,4.45
2022-12-09T06:56:11.535Z,3.63
2022-12-09T06:58:40.586Z,4.03
2022-12-09T07:01:13.756Z,5.93
2022-12-09T07:03:42.895Z,6.57
2022-12-09T07:06:29.060Z,3.85
2022-12-09T07:08:59.087Z,3.60
2022-12-09T07:11:26.511Z,3.28
2022-12-09T07:13:53.538Z,5.40
2022-12-09T07:16:20.351Z,4.13
2022-12-09T07:18:47.680Z,5.13
2022-12-09T07:21:17.496Z,4.00
2022-12-09T07:23:44.783Z,4.82
2022-12-09T07:26:11.935Z,3.30
2022-12-09T07:28:42.469Z,3.15
2022-12-09T07:31:21.161Z,4.38
2022-12-09T07:33:48.420Z,2.92
2022-12-09T07:36:20.667Z,3.08
2022-12-09T07:41:21.015Z,2.88
2022-12-09T07:46:17.335Z,2.50
2022-12-09T07:48:44.310Z,2.70
2022-12-09T07:51:10.987Z,5.22
2022-12-09T07:53:38.634Z,3.25
2022-12-09T07:56:08.605Z,3.55
2022-12-09T07:58:35.597Z,2.58
2022-12-09T08:01:11.436Z,2.60
2022-12-09T08:03:40.275Z,3.75
2022-12-09T08:06:07.475Z,2.55
2022-12-09T08:08:34.848Z,3.75
2022-12-09T08:11:17.147Z,4.80
2022-12-09T08:13:44.414Z,3.00
2022-12-09T08:16:13.646Z,2.97
2022-12-09T08:18:42.165Z,3.75
2022-12-09T08:21:17.529Z,3.22
2022-12-09T08:23:44.899Z,3.00
2022-12-09T08:26:12.981Z,3.45
2022-12-09T08:28:40.336Z,3.92
2022-12-09T08:31:09.336Z,4.88
2022-12-09T08:33:36.530Z,4.78
2022-12-09T08:36:07.719Z,4.53
2022-12-09T08:38:34.608Z,3.65
2022-12-09T08:41:12.521Z,4.63
2022-12-09T08:43:40.095Z,3.95
2022-12-09T08:46:07.930Z,5.68
2022-12-09T08:48:39.022Z,4.63
2022-12-09T08:51:06.531Z,4.30
2022-12-09T08:53:33.543Z,12.73
2022-12-09T08:56:07.010Z,14.32
2022-12-09T08:58:34.189Z,13.95
2022-12-09T09:01:01.311Z,11.60
2022-12-09T09:03:28.116Z,11.52
2022-12-09T09:06:07.048Z,11.35
2022-12-09T09:08:36.200Z,10.75
2022-12-09T09:11:10.473Z,10.63
2022-12-09T09:13:39.288Z,11.27
2022-12-09T09:16:11.408Z,11.07
2022-12-09T09:18:38.672Z,20.60
2022-12-09T09:21:07.658Z,9.52
2022-12-09T09:23:34.712Z,9.73
2022-12-09T09:26:02.611Z,9.40
2022-12-09T09:28:31.766Z,12.50
2022-12-09T09:31:04.401Z,11.50
2022-12-09T09:33:31.541Z,12.80
2022-12-09T09:36:01.798Z,11.07
2022-12-09T09:38:33.346Z,14.57
2022-12-09T09:41:02.056Z,13.00
2022-12-09T09:43:34.263Z,16.60
2022-12-09T09:46:01.287Z,14.93
2022-12-09T09:48:32.609Z,11.93
2022-12-09T09:51:13.096Z,16.92
2022-12-09T09:53:41.156Z,12.88
2022-12-09T09:56:37.718Z,13.93
2022-12-09T09:59:19.824Z,13.10
2022-12-09T10:02:02.494Z,15.23
2022-12-09T10:04:51.072Z,15.98
2022-12-09T10:07:51.651Z,12.95
2022-12-09T10:10:36.646Z,15.30
2022-12-09T10:13:18.649Z,13.10
2022-12-09T10:16:06.681Z,14.38
2022-12-09T10:19:02.660Z,16.77
2022-12-09T10:21:42.459Z,14.45
2022-12-09T10:24:20.610Z,15.07
2022-12-09T10:27:14.576Z,10.75
2022-12-09T10:30:00.897Z,9.88
2022-12-09T10:32:30.966Z,13.90
2022-12-09T10:34:59.220Z,14.23
2022-12-09T10:37:35.335Z,12.60
2022-12-09T10:40:07.829Z,11.40
2022-12-09T10:43:02.064Z,8.73
2022-12-09T10:45:40.338Z,11.30
2022-12-09T10:48:34.463Z,15.00
2022-12-09T10:51:11.382Z,13.73
2022-12-09T10:53:45.370Z,9.88
2022-12-09T10:56:20.160Z,10.73
2022-12-09T10:58:47.328Z,11.55
2022-12-09T11:01:16.082Z,12.00
2022-12-09T11:03:53.693Z,10.23
2022-12-09T11:06:26.085Z,10.73
2022-12-09T11:09:01.482Z,13.95
2022-12-09T11:11:46.532Z,12.75
2022-12-09T11:14:23.123Z,15.55
2022-12-09T11:16:50.605Z,12.05
2022-12-09T11:19:17.650Z,12.73
2022-12-09T11:21:44.565Z,12.30
2022-12-09T11:24:24.860Z,14.18
2022-12-09T11:26:51.660Z,11.13
2022-12-09T11:29:22.168Z,12.43
2022-12-09T11:31:49.169Z,13.35
2022-12-09T11:34:27.381Z,13.27
2022-12-09T11:36:58.966Z,13.70
2022-12-09T11:39:36.508Z,14.35
2022-12-09T11:42:21.902Z,16.40
2022-12-09T11:44:56.539Z,14.23
2022-12-09T11:47:27.831Z,12.77
2022-12-09T11:50:06.018Z,18.25
2022-12-09T11:52:32.968Z,14.70
2022-12-09T11:55:11.066Z,16.33
2022-12-09T11:57:47.386Z,15.95
2022-12-09T12:00:25.289Z,16.10
2022-12-09T12:03:04.410Z,16.65
2022-12-09T12:05:41.005Z,16.35
2022-12-09T12:08:36.060Z,17.83
2022-12-09T12:11:13.382Z,17.98
2022-12-09T12:13:48.692Z,16.77
2022-12-09T12:16:36.095Z,15.95
2022-12-09T12:19:30.926Z,15.68
2022-12-09T12:22:32.651Z,16.85
2022-12-09T12:24:59.166Z,13.40
2022-12-09T12:30:14.684Z,13.40
2022-12-09T12:35:57.127Z,11.45
2022-12-09T12:38:29.300Z,13.32
2022-12-09T12:41:04.983Z,12.10
2022-12-09T12:44:08.348Z,11.82
2022-12-09T12:46:54.130Z,11.68
2022-12-09T12:49:38.377Z,10.40
2022-12-09T12:52:55.757Z,9.63
2022-12-09T12:55:21.769Z,10.48
2022-12-09T12:57:57.154Z,9.52
2022-12-09T13:00:28.204Z,9.02
2022-12-09T13:03:09.075Z,9.35
2022-12-09T13:05:41.387Z,8.40
2022-12-09T13:08:37.196Z,8.60
2022-12-09T13:11:20.001Z,7.72
2022-12-09T13:13:54.777Z,7.50
2022-12-09T13:16:29.763Z,8.82
2022-12-09T13:19:14.128Z,8.13
2022-12-09T13:21:40.856Z,7.50
2022-12-09T13:24:21.850Z,7.85
2022-12-09T13:27:04.653Z,7.47
2022-12-09T13:29:46.549Z,7.63
2022-12-09T13:32:37.341Z,7.30
2022-12-09T13:35:31.163Z,6.60
2022-12-09T13:37:59.200Z,6.35
2022-12-09T13:40:36.571Z,6.82
2022-12-09T13:43:03.047Z,5.97
2022-12-09T13:45:37.009Z,5.68
2022-12-09T13:48:16.574Z,5.72
2022-12-09T13:50:49.435Z,5.80
2022-12-09T13:53:18.945Z,5.93
2022-12-09T13:56:00.695Z,5.00
2022-12-09T13:58:30.518Z,6.13
2022-12-09T14:01:04.801Z,5.22
2022-12-09T14:03:35.908Z,5.68
2022-12-09T14:06:16.942Z,6.22
2022-12-09T14:08:50.422Z,5.38
2022-12-09T14:11:49.250Z,6.05
2022-12-09T14:14:24.983Z,5.80
2022-12-09T14:16:53.450Z,4.60
2022-12-09T14:19:26.443Z,4.60
2022-12-09T14:22:19.176Z,4.57
2022-12-09T14:24:49.507Z,4.28
2022-12-09T14:27:27.845Z,7.20
2022-12-09T14:29:58.669Z,4.60
2022-12-09T14:32:30.720Z,4.65
2022-12-09T14:35:11.015Z,4.30
2022-12-09T14:38:06.509Z,5.10
2022-12-09T14:40:39.360Z,3.72
2022-12-09T14:46:00.454Z,4.47
2022-12-09T14:48:31.385Z,4.03
2022-12-09T14:51:35.256Z,3.75
2022-12-09T14:54:12.276Z,4.13
2022-12-09T14:56:38.862Z,4.07
2022-12-09T14:59:16.314Z,3.65
2022-12-09T15:01:52.661Z,3.60
2022-12-09T15:04:40.414Z,3.95
2022-12-09T15:07:16.697Z,3.53
2022-12-09T15:09:54.578Z,4.72
2022-12-09T15:12:35.194Z,3.83
2022-12-09T15:15:07.898Z,3.72
2022-12-09T15:17:43.456Z,3.70
2022-12-09T15:20:22.724Z,4.07
2022-12-09T15:22:52.863Z,4.35
2022-12-09T15:25:21.957Z,3.63
2022-12-09T15:28:05.120Z,3.67
2022-12-09T15:33:04.045Z,3.45
2022-12-09T15:35:33.627Z,3.25
2022-12-09T15:38:04.977Z,3.38
2022-12-09T15:40:33.486Z,3.25
2022-12-09T15:43:10.070Z,3.85
2022-12-09T15:45:39.190Z,2.92
2022-12-09T15:48:14.898Z,3.10
2022-12-09T15:50:49.664Z,4.40
2022-12-09T15:53:18.856Z,2.70
2022-12-09T15:56:05.553Z,3.20
2022-12-09T15:58:38.261Z,3.22
2022-12-09T16:01:05.067Z,3.45
2022-12-09T16:03:33.551Z,3.50
2022-12-09T16:06:10.860Z,3.55
2022-12-09T16:08:41.574Z,2.70
2022-12-09T16:11:08.116Z,3.63
2022-12-09T16:13:34.618Z,3.35
2022-12-09T16:16:21.995Z,4.07
2022-12-09T16:18:50.163Z,3.10
2022-12-09T16:21:27.852Z,3.65
2022-12-09T16:23:56.877Z,3.47
2022-12-09T16:26:31.062Z,3.05
2022-12-09T16:29:04.405Z,2.83
2022-12-09T16:31:30.980Z,3.00
2022-12-09T16:33:57.845Z,3.20
2022-12-09T16:36:30.194Z,3.47
2022-12-09T16:39:08.922Z,3.13
2022-12-09T16:41:50.548Z,3.08
2022-12-09T16:44:22.868Z,2.65
2022-12-09T16:46:49.579Z,2.95
2022-12-09T16:49:15.997Z,3.75
2022-12-09T16:51:42.547Z,2.70
2022-12-09T16:54:20.870Z,3.25
2022-12-09T16:56:47.998Z,2.72
2022-12-09T16:59:14.468Z,2.83
2022-12-09T17:01:42.215Z,2.97
2022-12-09T17:04:22.089Z,2.50
2022-12-09T17:06:48.798Z,2.58
2022-12-09T17:09:15.330Z,2.63
2022-12-09T17:11:46.997Z,3.22
2022-12-09T17:14:15.163Z,3.25
2022-12-09T17:16:41.660Z,2.97
2022-12-09T17:19:08.288Z,3.50
2022-12-09T17:21:34.764Z,2.75
2022-12-09T17:24:01.289Z,3.30
2022-12-09T17:26:27.762Z,2.53
2022-12-09T17:28:59.808Z,2.72
2022-12-09T17:31:28.378Z,2.67
2022-12-09T17:33:56.338Z,2.85
2022-12-09T17:36:23.041Z,2.97
2022-12-09T17:38:49.554Z,3.45
2022-12-09T17:41:20.482Z,2.80
2022-12-09T17:43:47.009Z,2.60
2022-12-09T17:46:13.814Z,2.70
2022-12-09T17:48:41.759Z,2.97
2022-12-09T17:51:10.810Z,2.58
2022-12-09T17:53:39.131Z,2.90
2022-12-09T17:56:09.927Z,2.80
2022-12-09T17:58:36.958Z,2.75
2022-12-09T18:01:04.118Z,3.00
2022-12-09T18:03:54.908Z,3.25
2022-12-09T18:06:17.844Z,2.90
2022-12-09T18:08:44.306Z,3.00
2022-12-09T18:11:11.339Z,2.80
2022-12-09T18:13:37.907Z,2.72
2022-12-09T18:16:09.613Z,3.20
2022-12-09T18:18:36.994Z,2.65
2022-12-09T18:21:03.863Z,2.58
2022-12-09T18:23:30.358Z,2.88
2022-12-09T18:25:57.721Z,2.63
2022-12-09T18:28:27.594Z,2.78
2022-12-09T18:30:55.127Z,3.00
2022-12-09T18:33:24.701Z,3.70
2022-12-09T18:35:51.527Z,2.67
2022-12-09T18:38:18.048Z,3.20
2022-12-09T18:41:03.327Z,3.10
2022-12-09T18:43:36.807Z,2.67
2022-12-09T18:46:06.173Z,2.85
2022-12-09T18:48:32.683Z,2.70
2022-12-09T18:50:59.145Z,2.60
2022-12-09T18:53:25.900Z,2.17
2022-12-09T18:55:53.001Z,2.80
2022-12-09T18:58:31.546Z,3.00
2022-12-09T19:01:23.849Z,2.30
2022-12-09T19:03:53.297Z,3.00
2022-12-09T19:06:26.321Z,2.50
2022-12-09T19:08:57.159Z,2.75
2022-12-09T19:11:28.971Z,2.40
2022-12-09T19:13:56.146Z,2.55
2022-12-09T19:16:24.146Z,2.92
2022-12-09T19:18:51.452Z,2.30
2022-12-09T19:21:19.470Z,2.72
2022-12-09T19:23:47.289Z,5.95
2022-12-09T19:26:28.062Z,9.35
2022-12-09T19:28:58.286Z,9.93
2022-12-09T19:31:30.169Z,7.57
2022-12-09T19:33:58.917Z,5.68
2022-12-09T19:36:27.843Z,6.70
2022-12-09T19:38:55.039Z,5.28
2022-12-09T19:41:21.547Z,5.18
2022-12-09T19:43:48.111Z,4.72
2022-12-09T19:46:15.610Z,5.28
2022-12-09T19:48:44.287Z,5.25
2022-12-09T19:51:13.740Z,3.75
2022-12-09T19:53:40.608Z,3.70
2022-12-09T19:56:18.798Z,3.70
2022-12-09T19:58:46.458Z,4.13
2022-12-09T20:01:21.625Z,4.15
2022-12-09T20:03:51.391Z,3.42
2022-12-09T20:06:20.624Z,4.25
2022-12-09T20:08:47.843Z,4.00
2022-12-09T20:11:17.436Z,3.10
2022-12-09T20:13:44.513Z,3.13
2022-12-09T20:16:15.747Z,2.92
2022-12-09T20:18:42.824Z,4.22
2022-12-09T20:21:11.798Z,3.22
2022-12-09T20:23:39.829Z,2.83
2022-12-09T20:26:11.962Z,4.45
2022-12-09T20:28:40.022Z,3.22
2022-12-09T20:31:15.557Z,2.92
2022-12-09T20:33:43.028Z,4.18
2022-12-09T20:36:12.605Z,2.78
2022-12-09T20:38:39.850Z,3.92
2022-12-09T20:41:09.884Z,2.85
2022-12-09T20:43:39.581Z,2.80
2022-12-09T20:46:18.644Z,3.10
2022-12-09T20:48:46.430Z,3.97
2022-12-09T20:51:28.080Z,2.53
2022-12-09T20:53:56.098Z,2.88
2022-12-09T20:56:25.140Z,2.80
2022-12-09T20:58:53.672Z,2.85
2022-12-09T21:01:20.156Z,2.55
2022-12-09T21:03:47.879Z,2.78
2022-12-09T21:06:15.343Z,2.90
2022-12-09T21:08:43.053Z,3.78
2022-12-09T21:11:15.629Z,3.33
2022-12-09T21:13:48.026Z,2.72
2022-12-09T21:16:19.782Z,2.70
2022-12-09T21:18:50.505Z,3.63
2022-12-09T21:21:18.764Z,2.50
2022-12-09T21:23:45.560Z,2.47
2022-12-09T21:26:14.556Z,2.40
2022-12-09T21:28:42.189Z,3.63
2022-12-09T21:31:13.055Z,2.38
2022-12-09T21:33:40.882Z,2.38
2022-12-09T21:36:09.751Z,2.40
2022-12-09T21:38:37.171Z,2.47
2022-12-09T21:41:06.947Z,2.65
2022-12-09T21:43:34.777Z,2.30
2022-12-09T21:46:03.215Z,2.55
2022-12-09T21:48:29.741Z,3.17
2022-12-09T21:50:57.805Z,2.22
2022-12-09T21:53:24.333Z,3.00
2022-12-09T21:55:51.676Z,2.72
2022-12-09T21:58:18.340Z,2.22
2022-12-09T22:00:45.294Z,2.20
2022-12-09T22:03:11.998Z,3.10
2022-12-09T22:05:38.762Z,2.42
2022-12-09T22:08:05.375Z,2.30
2022-12-09T22:10:31.876Z,2.58
2022-12-09T22:12:58.319Z,2.40
2022-12-09T22:15:24.805Z,2.38
2022-12-09T22:17:51.287Z,2.45
2022-12-09T22:23:04.220Z,2.40
2022-12-09T22:25:30.685Z,2.25
2022-12-09T22:27:57.534Z,2.30
2022-12-09T22:30:24.016Z,2.40
2022-12-09T22:32:51.140Z,1.88
2022-12-09T22:35:17.765Z,2.35
2022-12-09T22:37:44.409Z,2.60
2022-12-09T22:40:11.559Z,2.08
2022-12-09T22:42:38.045Z,2.35
2022-12-09T22:45:05.860Z,2.20
2022-12-09T22:47:32.831Z,2.35
2022-12-09T22:49:59.284Z,2.28
2022-12-09T22:52:25.760Z,2.50
2022-12-09T22:54:52.266Z,2.35
2022-12-09T22:57:18.747Z,2.55
2022-12-09T22:59:45.205Z,2.20
2022-12-09T23:02:11.671Z,2.58
2022-12-09T23:04:38.227Z,2.55
2022-12-09T23:07:04.650Z,2.67
2022-12-09T23:09:31.346Z,2.58
2022-12-09T23:11:57.887Z,2.60
2022-12-09T23:14:24.453Z,2.45
2022-12-09T23:16:50.885Z,2.35
2022-12-09T23:19:17.520Z,2.83
2022-12-09T23:21:44.094Z,2.40
2022-12-09T23:24:15.712Z,2.83
2022-12-09T23:26:45.025Z,3.08
2022-12-09T23:29:14.897Z,2.75
2022-12-09T23:31:42.574Z,2.30
2022-12-09T23:34:11.792Z,2.90
2022-12-09T23:36:40.627Z,2.38
2022-12-09T23:39:10.991Z,3.90
2022-12-09T23:41:39.294Z,2.53
2022-12-09T23:44:15.071Z,2.67
2022-12-09T23:46:42.167Z,2.60
2022-12-09T23:49:08.742Z,2.70
2022-12-09T23:51:37.757Z,2.97
2022-12-09T23:54:06.450Z,2.83
2022-12-09T23:56:38.479Z,3.40
2022-12-09T23:59:08.053Z,2.90
